Terminal Aerodrome Forecast
Issued by NWS Mt. Holly, NJ

Home | Current Version | Previous Version | Text Only | Print | Product List | Glossary On
Versions: 1 2 3 4 5 6 7 8 9 10 11 12 13 14 15 16 17 18 19 20 21
115
FTUS41 KPHI 221728
TAFILG
TAF
KILG 221728Z 2218/2318 29015G25KT P6SM SCT070
      TEMPO 2219/2222 BKN070
     FM230000 30010G18KT P6SM SKC
     FM230600 34009KT P6SM SKC
     FM231600 27006KT P6SM SCT250=

USA.gov is the U.S. government's official web portal to all federal, state and local government web resources and services.